Time;durP1;ratioP1;P1;durP2;ratioP2;P2;SDS_P1;SDS_P2;PMS_P1;PMS_P2;Temp;Humidity;BMP_temperature;BMP_pressure;BME280_temperature;BME280_humidity;BME280_pressure;Samples;Min_cycle;Max_cycle;Signal;HPM_P1;HPM_P2
2022/06/14 00:00:55;;;;;;;10.78;5.25;;;;;;;21.33;56.05;99646.38;1663698;84;21541;-72
2022/06/14 00:03:34;;;;;;;9.95;5.67;;;;;;;21.33;56.17;99643.16;1672479;84;21826;-72
2022/06/14 00:06:14;;;;;;;8.15;5.42;;;;;;;21.34;56.16;99638.62;1661050;84;20949;-72
2022/06/14 00:08:41;;;;;;;7.42;5.37;;;;;;;21.37;56.10;99641.70;1680494;84;21458;-73
2022/06/14 00:11:19;;;;;;;10.32;5.85;;;;;;;21.39;55.98;99644.17;1670226;84;22111;-73
2022/06/14 00:13:45;;;;;;;7.05;5.78;;;;;;;21.42;56.19;99639.71;1670841;83;21123;-72
2022/06/14 00:16:13;;;;;;;9.10;5.47;;;;;;;21.44;56.33;99636.33;1693413;83;22010;-72
2022/06/14 00:18:41;;;;;;;10.45;5.72;;;;;;;21.46;56.42;99635.59;1685227;83;21464;-72
2022/06/14 00:21:08;;;;;;;8.95;5.42;;;;;;;21.43;56.47;99624.75;1686909;85;21038;-72
2022/06/14 00:23:35;;;;;;;6.03;5.40;;;;;;;21.44;56.48;99625.58;1659753;85;21036;-72
2022/06/14 00:26:02;;;;;;;8.85;5.15;;;;;;;21.41;56.60;99617.39;1672140;85;21057;-73
2022/06/14 00:28:30;;;;;;;8.00;5.35;;;;;;;21.39;56.71;99622.68;1679473;84;21867;-72
2022/06/14 00:31:01;;;;;;;12.18;5.50;;;;;;;21.34;56.81;99621.98;1688260;83;21009;-73
2022/06/14 00:33:27;;;;;;;6.30;5.60;;;;;;;21.32;56.93;99620.52;1699615;83;21059;-72
2022/06/14 00:35:59;;;;;;;5.92;5.17;;;;;;;21.29;57.03;99616.92;1688015;83;21056;-72
2022/06/14 00:38:26;;;;;;;9.43;5.78;;;;;;;21.26;57.08;99615.48;1671152;84;22115;-72
2022/06/14 00:40:57;;;;;;;8.03;5.60;;;;;;;21.22;57.15;99612.03;1681262;84;21950;-72
2022/06/14 00:43:25;;;;;;;8.35;5.37;;;;;;;21.20;57.25;99614.11;1673778;84;21071;-72
2022/06/14 00:46:12;;;;;;;7.53;5.30;;;;;;;21.18;57.38;99616.19;1680108;83;20976;-72
2022/06/14 00:48:40;;;;;;;7.08;5.50;;;;;;;21.16;57.51;99612.37;1688894;83;21020;-72
2022/06/14 00:51:14;;;;;;;7.72;5.97;;;;;;;21.14;57.51;99610.42;1683790;84;21027;-72
2022/06/14 00:53:49;;;;;;;7.00;5.50;;;;;;;21.12;57.51;99608.44;1670915;84;21868;-72
2022/06/14 00:56:20;;;;;;;6.55;5.35;;;;;;;21.09;57.45;99616.40;1659559;84;21501;-72
2022/06/14 00:58:53;;;;;;;7.90;5.22;;;;;;;21.05;57.49;99609.81;1675197;84;21456;-72
2022/06/14 01:01:29;;;;;;;8.18;5.70;;;;;;;21.03;57.59;99614.53;1657631;83;21482;-72
2022/06/14 01:04:04;;;;;;;7.97;5.30;;;;;;;20.98;57.72;99615.69;1656551;84;21018;-72
2022/06/14 01:07:06;;;;;;;8.13;5.70;;;;;;;20.93;57.92;99619.50;1663379;85;21929;-72
2022/06/14 01:09:42;;;;;;;12.43;5.78;;;;;;;20.88;58.04;99621.17;1684641;83;21629;-71
2022/06/14 01:12:14;;;;;;;7.80;5.67;;;;;;;20.82;58.30;99616.09;1690888;83;21392;-72
2022/06/14 01:15:03;;;;;;;9.68;5.42;;;;;;;20.79;58.48;99620.55;1664126;83;20976;-71
2022/06/14 01:17:40;;;;;;;6.85;6.15;;;;;;;20.78;58.49;99615.70;1672573;83;20967;-71
2022/06/14 01:20:07;;;;;;;11.55;6.58;;;;;;;20.78;58.43;99608.98;1691331;83;21970;-72
2022/06/14 01:22:34;;;;;;;7.12;6.30;;;;;;;20.80;58.44;99611.46;1689288;83;21039;-71
2022/06/14 01:25:02;;;;;;;8.00;5.97;;;;;;;20.78;58.38;99610.33;1689078;83;20988;-71
2022/06/14 01:27:31;;;;;;;6.97;5.83;;;;;;;20.74;58.45;99606.91;1686735;83;20976;-71
2022/06/14 01:30:03;;;;;;;9.05;6.30;;;;;;;20.65;58.55;99606.28;1696174;83;21110;-72
2022/06/14 01:32:34;;;;;;;7.33;6.27;;;;;;;20.59;58.52;99612.48;1699141;83;22496;-71
2022/06/14 01:35:04;;;;;;;9.03;6.47;;;;;;;20.53;58.53;99604.73;1689534;85;21399;-71
2022/06/14 01:37:31;;;;;;;7.97;6.40;;;;;;;20.49;58.61;99604.84;1689976;83;20968;-71
2022/06/14 01:39:58;;;;;;;9.08;6.75;;;;;;;20.43;58.55;99609.67;1669249;83;21081;-72
2022/06/14 01:43:01;;;;;;;7.53;6.83;;;;;;;20.39;58.58;99609.75;1694342;83;21055;-72
2022/06/14 01:45:43;;;;;;;8.95;6.75;;;;;;;20.32;58.65;99607.56;1704738;83;22489;-72
2022/06/14 01:48:18;;;;;;;7.80;6.67;;;;;;;20.26;58.77;99605.69;1689166;83;20946;-71
2022/06/14 01:54:29;;;;;;;11.55;6.97;;;;;;;20.14;59.02;99607.31;1685199;83;21465;-73
2022/06/14 01:57:19;;;;;;;10.28;6.70;;;;;;;20.05;59.14;99604.50;1700462;83;21063;-73
2022/06/14 02:00:19;;;;;;;9.25;6.28;;;;;;;19.96;59.29;99609.21;1674153;83;22264;-71
2022/06/14 02:05:54;;;;;;;9.68;6.58;;;;;;;19.71;59.63;99596.36;1706461;83;21102;-73
2022/06/14 02:08:24;;;;;;;8.48;7.03;;;;;;;19.63;59.80;99594.36;1692986;83;20992;-72
2022/06/14 02:11:08;;;;;;;8.28;6.75;;;;;;;19.56;59.89;99593.49;1689552;85;20956;-72
2022/06/14 02:13:55;;;;;;;8.05;6.72;;;;;;;19.50;60.01;99596.95;1700623;81;22368;-73
2022/06/14 02:16:45;;;;;;;8.85;6.80;;;;;;;19.42;60.18;99597.42;1695576;83;21601;-72
2022/06/14 02:19:32;;;;;;;7.70;6.67;;;;;;;19.36;60.30;99590.17;1689793;83;21512;-73
2022/06/14 02:22:07;;;;;;;9.88;7.05;;;;;;;19.32;60.41;99593.45;1681853;83;21051;-72
2022/06/14 02:24:40;;;;;;;7.67;6.80;;;;;;;19.27;60.68;99594.03;1691962;84;21467;-72
2022/06/14 02:27:17;;;;;;;13.80;6.80;;;;;;;19.25;60.81;99599.27;1697254;83;22057;-72
2022/06/14 02:29:51;;;;;;;10.82;7.20;;;;;;;19.23;60.88;99596.80;1616313;86;21114;-72
2022/06/14 02:32:32;;;;;;;9.05;7.40;;;;;;;19.23;60.88;99596.80;1631125;86;21027;-72
2022/06/14 02:35:26;;;;;;;11.10;7.35;;;;;;;19.24;60.85;99602.47;1636368;86;21075;-73
2022/06/14 02:38:17;;;;;;;;;;;;;;;19.24;60.91;99597.11;1627606;86;21012;-74
2022/06/14 02:40:52;;;;;;;10.80;7.42;;;;;;;19.25;60.90;99599.27;1632328;87;21847;-73
2022/06/14 02:43:36;;;;;;;10.70;7.47;;;;;;;19.23;60.86;99598.13;1661015;85;21021;-73
2022/06/14 02:46:20;;;;;;;8.78;7.15;;;;;;;19.24;60.85;99605.66;1667813;85;21360;-70
2022/06/14 02:49:04;;;;;;;8.50;6.22;;;;;;;19.26;60.83;99603.60;1666678;84;21458;-74
2022/06/14 02:51:39;;;;;;;7.97;6.22;;;;;;;19.28;60.68;99606.39;1660062;86;21103;-73
2022/06/14 02:54:20;;;;;;;8.95;6.17;;;;;;;19.30;60.53;99600.35;1613491;85;22012;-73
2022/06/14 02:57:05;;;;;;;8.55;5.92;;;;;;;19.31;60.44;99600.66;1661692;85;21016;-71
2022/06/14 02:59:48;;;;;;;11.28;6.40;;;;;;;19.33;60.28;99603.96;1660444;85;21459;-72
2022/06/14 03:02:19;;;;;;;10.68;6.30;;;;;;;19.35;60.16;99603.76;1657863;86;21011;-70
2022/06/14 03:05:09;;;;;;;11.48;6.53;;;;;;;19.36;60.08;99599.54;1658486;84;21062;-72
2022/06/14 03:07:57;;;;;;;10.60;6.17;;;;;;;19.37;60.09;99595.01;1670619;85;21936;-72
2022/06/14 03:10:42;;;;;;;8.58;6.22;;;;;;;19.39;60.10;99590.28;1659314;86;21056;-73
2022/06/14 03:13:13;;;;;;;7.87;6.15;;;;;;;19.43;60.00;99595.06;1681121;84;21321;-72
2022/06/14 03:15:54;;;;;;;10.15;6.60;;;;;;;19.45;59.94;99597.53;1670750;84;21374;-72
2022/06/14 03:18:27;;;;;;;11.75;6.37;;;;;;;19.43;59.98;99600.41;1672004;84;21011;-72
2022/06/14 03:21:12;;;;;;;9.20;6.10;;;;;;;19.42;60.18;99594.75;1679464;85;21923;-72
2022/06/14 03:24:11;;;;;;;9.10;6.08;;;;;;;19.43;60.22;99593.72;1672111;83;20984;-72
2022/06/14 03:27:24;;;;;;;12.55;6.20;;;;;;;19.46;60.21;99591.15;1688241;85;21024;-72
2022/06/14 03:30:26;;;;;;;12.28;5.70;;;;;;;19.51;60.13;99591.91;1690524;83;20985;-72
2022/06/14 03:33:09;;;;;;;9.88;5.47;;;;;;;19.54;60.08;99593.67;1687849;84;21021;-73
2022/06/14 03:35:40;;;;;;;8.38;5.40;;;;;;;19.61;59.99;99595.08;1656662;85;22664;-72
2022/06/14 03:38:16;;;;;;;10.60;5.28;;;;;;;19.67;59.91;99588.39;1689650;83;21003;-72
2022/06/14 03:40:43;;;;;;;12.93;5.60;;;;;;;19.75;59.85;99590.08;1689573;85;20967;-72
2022/06/14 03:43:10;;;;;;;11.93;5.42;;;;;;;19.84;59.74;99590.73;1689176;85;20976;-72
2022/06/14 03:45:51;;;;;;;8.75;4.87;;;;;;;19.91;59.52;99592.41;1688142;83;21081;-72
2022/06/14 03:48:19;;;;;;;8.03;5.17;;;;;;;19.98;59.34;99595.13;1661092;85;21307;-72
2022/06/14 03:51:25;;;;;;;5.90;4.67;;;;;;;20.07;58.98;99596.56;1675682;85;20992;-72
2022/06/14 03:54:19;;;;;;;5.28;4.33;;;;;;;20.15;58.75;99596.38;1687478;83;20968;-73
2022/06/14 03:56:58;;;;;;;;;;;;;;;20.26;58.41;99594.44;1691664;84;21024;-72
2022/06/14 03:59:36;;;;;;;7.80;4.60;;;;;;;20.36;58.36;99589.20;1689246;83;20193;-73
2022/06/14 04:02:11;;;;;;;6.20;4.30;;;;;;;20.40;57.93;99585.92;1627530;86;21753;-73
2022/06/14 04:04:55;;;;;;;6.03;4.75;;;;;;;20.45;57.89;99587.48;1663626;84;21023;-73
2022/06/14 04:07:46;;;;;;;8.63;4.58;;;;;;;20.53;57.78;99591.84;1633519;87;20996;-74
2022/06/14 04:10:38;;;;;;;6.72;4.28;;;;;;;20.64;57.78;99591.73;1688410;83;21545;-73
2022/06/14 04:13:38;;;;;;;7.40;4.30;;;;;;;20.75;57.60;99592.45;1689118;84;21065;-74
2022/06/14 04:16:37;;;;;;;8.68;3.92;;;;;;;20.85;57.51;99591.55;1688370;85;21962;-74
2022/06/14 04:19:41;;;;;;;6.00;3.30;;;;;;;20.98;57.42;99583.47;1685531;85;21050;-74
2022/06/14 04:22:30;;;;;;;4.22;3.20;;;;;;;21.13;56.68;99584.08;1661505;86;21011;-73
2022/06/14 04:25:25;;;;;;;6.05;3.30;;;;;;;21.28;56.17;99582.52;1660505;85;21023;-72
2022/06/14 04:28:21;;;;;;;5.97;2.90;;;;;;;21.42;55.61;99580.61;1685987;83;21000;-74
2022/06/14 04:31:02;;;;;;;4.85;2.70;;;;;;;21.57;54.95;99579.84;1680970;83;22211;-72
2022/06/14 04:33:39;;;;;;;5.62;2.80;;;;;;;21.73;54.42;99575.87;1674196;85;21387;-72
2022/06/14 04:36:10;;;;;;;6.45;2.80;;;;;;;21.87;54.21;99580.65;1688147;85;21052;-73
2022/06/14 04:38:53;;;;;;;3.80;2.92;;;;;;;21.99;53.97;99586.98;1690337;83;21490;-73
2022/06/14 04:41:24;;;;;;;6.47;3.10;;;;;;;22.13;53.73;99583.76;1689502;85;20956;-73
2022/06/14 04:44:26;;;;;;;4.60;2.52;;;;;;;22.23;53.05;99587.62;1689072;83;21710;-73
2022/06/14 04:47:16;;;;;;;5.90;2.70;;;;;;;22.35;52.89;99586.40;1689002;85;20882;-73
2022/06/14 04:49:50;;;;;;;3.90;2.80;;;;;;;22.49;51.96;99580.42;1689374;85;20961;-73
2022/06/14 04:52:25;;;;;;;4.30;2.72;;;;;;;22.61;51.66;99583.22;1689127;83;21441;-73
2022/06/14 04:55:03;;;;;;;3.27;2.70;;;;;;;22.71;51.37;99585.72;1690733;83;21455;-72
2022/06/14 04:57:44;;;;;;;4.35;2.60;;;;;;;22.84;50.78;99587.50;1689198;85;21955;-73
2022/06/14 05:00:15;;;;;;;4.42;2.47;;;;;;;22.94;49.99;99586.47;1689069;83;20960;-73
2022/06/14 05:02:57;;;;;;;7.33;3.00;;;;;;;23.03;50.30;99585.67;1681694;83;20860;-73
2022/06/14 05:05:29;;;;;;;6.15;2.67;;;;;;;23.13;49.78;99588.16;1667701;82;21008;-72
2022/06/14 05:08:07;;;;;;;3.85;2.47;;;;;;;23.26;49.62;99583.67;1690675;83;21087;-74
2022/06/14 05:10:50;;;;;;;9.50;2.83;;;;;;;23.36;49.08;99583.48;1678052;83;21831;-74
2022/06/14 05:13:28;;;;;;;6.22;2.67;;;;;;;23.49;48.87;99585.19;1673720;85;21035;-73
2022/06/14 05:16:08;;;;;;;5.62;2.90;;;;;;;23.59;49.06;99581.47;1690276;83;21074;-72
2022/06/14 05:19:00;;;;;;;4.55;2.58;;;;;;;23.72;48.03;99589.91;1691014;83;21451;-73
2022/06/14 05:21:42;;;;;;;8.35;2.58;;;;;;;23.87;47.90;99583.61;1686741;83;21067;-72
2022/06/14 05:24:09;;;;;;;3.77;2.67;;;;;;;24.02;48.25;99585.89;1660065;84;22026;-72
2022/06/14 05:26:58;;;;;;;5.53;2.42;;;;;;;24.12;47.40;99583.46;1686349;84;21008;-74
2022/06/14 05:29:46;;;;;;;6.20;2.60;;;;;;;24.20;47.69;99577.75;1691398;83;21010;-73
2022/06/14 05:32:40;;;;;;;5.72;2.80;;;;;;;24.32;47.47;99583.23;1662592;85;21050;-73
2022/06/14 05:35:37;;;;;;;7.78;2.80;;;;;;;24.45;46.56;99584.91;1687712;84;20995;-71
2022/06/14 05:38:43;;;;;;;4.40;2.47;;;;;;;24.54;46.46;99587.56;1689828;83;21801;-72
2022/06/14 05:41:26;;;;;;;6.75;3.17;;;;;;;24.64;46.32;99589.70;1691128;84;20968;-73
2022/06/14 05:44:03;;;;;;;5.87;2.47;;;;;;;24.78;45.37;99587.88;1686270;83;21418;-74
2022/06/14 05:46:44;;;;;;;7.05;2.83;;;;;;;24.92;45.04;99587.67;1692432;83;20940;-73
2022/06/14 05:49:24;;;;;;;4.25;2.50;;;;;;;25.03;44.70;99586.34;1691645;83;20959;-74
2022/06/14 05:52:02;;;;;;;4.47;2.55;;;;;;;25.16;44.09;99589.33;1690972;84;21965;-73
2022/06/14 05:55:00;;;;;;;5.00;2.37;;;;;;;25.25;43.77;99588.44;1689569;83;20956;-73
2022/06/14 05:58:12;;;;;;;6.10;2.45;;;;;;;25.32;43.60;99580.51;1688436;83;21086;-74
2022/06/14 06:01:04;;;;;;;5.40;2.37;;;;;;;25.40;43.93;99592.84;1691642;83;20992;-73
2022/06/14 06:03:52;;;;;;;3.20;2.30;;;;;;;25.54;42.90;99600.98;1693193;83;20959;-73
2022/06/14 06:06:24;;;;;;;4.72;2.30;;;;;;;25.69;42.26;99595.08;1693523;83;21763;-73
2022/06/14 06:09:20;;;;;;;8.73;2.80;;;;;;;25.81;41.92;99588.30;1683590;83;21672;-73
2022/06/14 06:11:58;;;;;;;5.70;2.50;;;;;;;25.86;41.68;99590.56;1598861;88;21516;-74
2022/06/14 06:14:39;;;;;;;5.87;2.58;;;;;;;25.93;42.04;99589.90;1643719;86;21170;-73
2022/06/14 06:17:17;;;;;;;4.42;2.50;;;;;;;26.05;41.44;99595.25;1660142;86;21068;-73
2022/06/14 06:19:55;;;;;;;9.83;2.50;;;;;;;26.14;42.05;99587.57;1682791;83;22429;-74
2022/06/14 06:22:32;;;;;;;4.10;2.20;;;;;;;26.26;41.82;99593.77;1691933;82;21034;-74
2022/06/14 06:25:06;;;;;;;4.30;2.52;;;;;;;26.37;41.04;99594.77;1701020;82;21450;-75
2022/06/14 06:27:41;;;;;;;3.98;2.12;;;;;;;26.45;41.34;99597.94;1694251;82;21446;-74
2022/06/14 06:30:31;;;;;;;2.67;2.00;;;;;;;26.52;40.77;99597.76;1697283;82;20985;-73
2022/06/14 06:32:59;;;;;;;5.05;2.98;;;;;;;26.58;40.87;99586.49;1694302;82;21882;-73
2022/06/14 06:35:31;;;;;;;4.70;2.33;;;;;;;26.66;41.12;99592.33;1690486;82;21419;-72
2022/06/14 06:38:12;;;;;;;3.42;2.27;;;;;;;26.77;40.68;99595.48;1696044;82;21026;-73
2022/06/14 06:41:49;;;;;;;4.13;1.97;;;;;;;26.86;40.41;99590.48;1685162;82;21530;-73
2022/06/14 06:43:27;;;;;;;3.65;1.95;;;;;;;26.96;40.03;99587.92;1666833;83;22189;-74
2022/06/14 06:45:55;;;;;;;2.80;1.92;;;;;;;27.11;39.49;99587.34;1700452;82;21087;-74
2022/06/14 06:48:42;;;;;;;3.08;2.40;;;;;;;27.24;39.69;99589.72;1690238;82;21379;-74
2022/06/14 06:51:13;;;;;;;5.40;2.02;;;;;;;27.36;39.38;99593.12;1705697;82;21079;-73
2022/06/14 06:53:53;;;;;;;5.12;2.12;;;;;;;27.51;39.02;99592.53;1690163;82;20983;-72
2022/06/14 06:56:24;;;;;;;4.87;2.00;;;;;;;27.66;38.27;99590.56;1674031;83;21573;-72
2022/06/14 06:58:59;;;;;;;5.20;2.00;;;;;;;27.80;38.35;99581.52;1677606;84;21923;-72
2022/06/14 07:01:31;;;;;;;3.50;1.90;;;;;;;28.01;36.63;99585.27;1692985;83;21003;-72
2022/06/14 07:04:09;;;;;;;5.20;2.10;;;;;;;28.17;36.92;99593.30;1690194;83;21019;-73
2022/06/14 07:06:50;;;;;;;5.97;2.20;;;;;;;28.34;36.05;99588.34;1669975;83;21064;-73
2022/06/14 07:09:35;;;;;;;7.10;2.85;;;;;;;28.41;35.84;99600.64;1680669;83;20999;-72
2022/06/14 07:12:11;;;;;;;4.10;2.35;;;;;;;28.40;36.05;99600.36;1727539;83;22029;-72
2022/06/14 07:14:53;;;;;;;5.92;2.55;;;;;;;28.28;36.40;99609.69;1682971;83;21024;-72
2022/06/14 07:17:39;;;;;;;7.30;2.52;;;;;;;28.07;36.79;99605.41;1722681;81;21336;-73
2022/06/14 07:20:28;;;;;;;4.92;2.30;;;;;;;27.86;37.02;99618.47;1683400;83;21052;-72
2022/06/14 07:23:05;;;;;;;4.95;2.05;;;;;;;27.70;37.36;99622.06;1711505;81;21110;-76
2022/06/14 07:25:36;;;;;;;3.58;1.90;;;;;;;27.58;37.52;99622.16;1724442;83;21934;-76
2022/06/14 07:28:23;;;;;;;4.25;2.33;;;;;;;27.51;37.48;99627.79;1713247;81;20955;-74
2022/06/14 07:30:56;;;;;;;6.75;2.27;;;;;;;27.48;37.70;99632.34;1731151;81;21042;-70
2022/06/14 07:33:25;;;;;;;5.45;2.40;;;;;;;27.51;37.98;99620.19;1725764;83;22159;-73
2022/06/14 07:35:58;;;;;;;7.55;2.17;;;;;;;27.63;37.89;99633.09;1726969;81;21043;-75
2022/06/14 07:38:42;;;;;;;3.12;2.10;;;;;;;27.75;37.58;99625.67;1725091;83;22584;-73
2022/06/14 07:41:38;;;;;;;8.23;2.30;;;;;;;27.88;37.51;99622.57;1731798;81;21522;-74
2022/06/14 07:44:26;;;;;;;7.58;2.30;;;;;;;28.01;37.89;99634.13;1691829;81;21070;-73
2022/06/14 07:47:17;;;;;;;4.40;2.22;;;;;;;28.27;37.32;99624.35;1725657;83;21568;-74
2022/06/14 07:49:57;;;;;;;2.40;2.12;;;;;;;28.45;36.94;99628.91;1725191;82;21066;-76
2022/06/14 07:52:36;;;;;;;7.62;2.40;;;;;;;28.51;37.02;99636.59;1698907;83;21747;-73
2022/06/14 07:55:32;;;;;;;7.80;2.52;;;;;;;28.45;37.08;99653.37;1695497;83;21088;-72
2022/06/14 07:58:09;;;;;;;8.45;2.60;;;;;;;28.29;37.49;99661.63;1690784;83;21033;-73
2022/06/14 08:03:45;;;;;;;7.28;2.40;;;;;;;27.99;38.86;99673.75;1700643;83;21038;-74
2022/06/14 08:06:19;;;;;;;7.75;3.02;;;;;;;27.88;39.31;99685.53;1719317;81;21820;-72
2022/06/14 08:08:45;;;;;;;5.78;3.05;;;;;;;27.59;39.74;99685.66;1711497;83;21056;-72
2022/06/14 08:11:23;;;;;;;6.42;3.20;;;;;;;27.35;40.81;99695.90;1691778;83;21055;-72
2022/06/14 08:13:56;;;;;;;6.78;3.58;;;;;;;27.30;40.76;99705.30;1691229;84;21051;-76
2022/06/14 08:16:24;;;;;;;11.15;3.75;;;;;;;27.04;41.37;99701.38;1670960;84;21040;-72
2022/06/14 08:19:08;;;;;;;7.10;3.52;;;;;;;26.80;42.16;99708.78;1688700;83;21325;-72
2022/06/14 08:21:47;;;;;;;9.60;3.72;;;;;;;26.81;42.64;99703.64;1681733;83;21557;-71
2022/06/14 08:24:22;;;;;;;9.65;4.00;;;;;;;26.82;42.87;99705.82;1673055;84;21144;-71
2022/06/14 08:27:01;;;;;;;8.55;4.12;;;;;;;26.78;42.74;99705.50;1666687;84;21059;-71
2022/06/14 08:29:48;;;;;;;6.65;4.00;;;;;;;26.58;43.24;99722.73;1687586;85;21011;-74
2022/06/14 08:32:36;;;;;;;7.20;4.37;;;;;;;26.40;43.43;99726.98;1674339;83;22423;-73
2022/06/14 08:35:23;;;;;;;11.05;4.45;;;;;;;26.22;43.67;99727.41;1639330;83;20981;-76
2022/06/14 08:38:04;;;;;;;8.23;4.10;;;;;;;26.06;44.10;99742.25;1635452;85;21012;-77
2022/06/14 08:41:18;;;;;;;6.83;4.58;;;;;;;26.03;44.26;99746.23;1697130;82;20992;-76
2022/06/14 08:43:51;;;;;;;8.88;4.53;;;;;;;26.06;44.31;99744.95;1689312;82;20986;-76
2022/06/14 08:46:44;;;;;;;10.98;4.95;;;;;;;26.10;44.45;99746.11;1683095;85;21907;-78
2022/06/14 08:49:44;;;;;;;10.72;5.10;;;;;;;26.03;44.47;99748.94;1677919;83;21403;-73
2022/06/14 08:53:08;;;;;;;7.03;4.50;;;;;;;26.04;44.25;99745.70;1698423;83;20995;-73
2022/06/14 08:55:56;;;;;;;12.18;4.75;;;;;;;25.92;44.29;99761.95;1716258;82;21058;-75
2022/06/14 08:58:56;;;;;;;10.43;4.53;;;;;;;25.87;44.78;99747.80;1683187;82;21025;-73
2022/06/14 09:02:03;;;;;;;8.90;4.40;;;;;;;25.86;44.72;99752.89;1688846;82;22686;-75
2022/06/14 09:05:07;;;;;;;9.78;4.22;;;;;;;25.85;44.55;99747.72;1686095;82;21096;-74
2022/06/14 09:08:05;;;;;;;9.35;3.87;;;;;;;25.80;45.14;99757.09;1680961;82;20981;-70
2022/06/14 09:10:54;;;;;;;8.63;3.60;;;;;;;25.88;45.68;99754.03;1690637;82;21069;-73
2022/06/14 09:13:51;;;;;;;8.63;3.77;;;;;;;25.85;45.43;99768.83;1703154;82;21769;-72
2022/06/14 09:16:38;;;;;;;9.73;4.12;;;;;;;25.63;45.73;99769.11;1675950;82;22983;-71
2022/06/14 09:19:26;;;;;;;8.58;3.80;;;;;;;25.37;46.25;99782.53;1658834;85;21019;-69
2022/06/14 09:22:11;;;;;;;6.92;3.90;;;;;;;25.23;46.61;99783.28;1680424;82;21097;-74
2022/06/14 09:25:02;;;;;;;12.43;3.83;;;;;;;24.90;46.94;99801.81;1704887;82;21494;-74
2022/06/14 09:27:54;;;;;;;7.35;3.60;;;;;;;24.60;47.31;99783.72;1669726;83;21596;-76
2022/06/14 09:31:10;;;;;;;7.95;3.70;;;;;;;24.55;47.88;99789.82;1687144;84;22409;-74
2022/06/14 09:34:15;;;;;;;9.78;3.35;;;;;;;24.53;48.28;99796.51;1683435;83;21133;-73
2022/06/14 09:37:05;;;;;;;7.22;2.85;;;;;;;24.52;48.56;99799.73;1683279;83;21386;-74
2022/06/14 09:39:54;;;;;;;3.92;2.83;;;;;;;24.62;48.34;99798.38;1689702;83;20980;-75
2022/06/14 09:42:40;;;;;;;6.17;2.90;;;;;;;24.46;48.42;99814.66;1663725;85;20996;-73
2022/06/14 09:45:45;;;;;;;4.40;3.00;;;;;;;24.42;48.64;99818.34;1688294;83;21815;-74
2022/06/14 09:48:20;;;;;;;8.58;2.98;;;;;;;24.45;48.34;99821.93;1690004;82;21020;-74
2022/06/14 09:51:39;;;;;;;9.83;2.60;;;;;;;24.44;48.04;99819.46;1681004;84;21047;-74
2022/06/14 09:54:31;;;;;;;4.78;2.35;;;;;;;24.43;47.59;99822.69;1691499;82;21074;-75
2022/06/14 09:57:23;;;;;;;6.20;2.40;;;;;;;24.24;47.63;99824.53;1685858;85;21466;-75
2022/06/14 10:00:29;;;;;;;3.33;2.08;;;;;;;24.19;47.60;99826.23;1676034;83;21773;-70
2022/06/14 10:03:05;;;;;;;5.28;1.92;;;;;;;24.08;47.30;99849.38;1682587;83;20959;-71
2022/06/14 10:05:46;;;;;;;4.25;1.80;;;;;;;23.68;47.72;99834.91;1683385;83;21314;-70
2022/06/14 10:08:28;;;;;;;5.12;2.00;;;;;;;23.51;48.38;99837.81;1688397;85;20997;-70
2022/06/14 10:11:07;;;;;;;8.80;2.02;;;;;;;23.40;48.57;99831.78;1686831;85;21490;-70
2022/06/14 10:13:54;;;;;;;3.83;2.15;;;;;;;23.43;48.97;99844.81;1680771;85;21937;-70
2022/06/14 10:16:52;;;;;;;5.20;2.00;;;;;;;23.53;49.06;99845.67;1659123;83;21110;-70
2022/06/14 10:19:39;;;;;;;5.25;1.95;;;;;;;23.59;49.23;99856.97;1689011;85;20988;-71
2022/06/14 10:22:18;;;;;;;7.05;2.00;;;;;;;23.45;50.29;99859.41;1680842;83;21031;-70
2022/06/14 10:24:56;;;;;;;6.08;2.10;;;;;;;23.32;51.02;99867.90;1648227;84;21146;-72
2022/06/14 10:30:52;;;;;;;3.67;2.10;;;;;;;23.01;52.00;99867.36;1687055;85;21015;-70
2022/06/14 10:33:43;;;;;;;;;;;;;;;22.93;52.57;99875.68;1691852;85;20992;-70
2022/06/14 10:36:37;;;;;;;7.35;1.85;;;;;;;22.86;52.65;99878.91;1683474;85;21042;-70
2022/06/14 10:39:30;;;;;;;2.25;1.70;;;;;;;22.68;53.09;99870.17;1688365;85;21020;-70
2022/06/14 10:42:23;;;;;;;4.23;1.90;;;;;;;22.72;53.37;99870.56;1659365;85;22072;-70
2022/06/14 10:45:01;;;;;;;2.40;1.82;;;;;;;22.67;53.01;99873.88;1658892;86;29129;-69
2022/06/14 10:48:12;;;;;;;3.92;1.60;;;;;;;22.71;52.99;99888.59;1688381;84;21502;-71
2022/06/14 10:50:59;;;;;;;5.15;1.60;;;;;;;22.70;52.58;99899.58;1688926;83;21043;-71
2022/06/14 10:53:55;;;;;;;5.08;1.45;;;;;;;22.64;52.73;99886.42;1686886;82;21072;-72
2022/06/14 10:56:42;;;;;;;3.45;1.40;;;;;;;22.59;51.89;99895.67;1683060;85;21943;-70
2022/06/14 10:59:35;;;;;;;5.15;1.40;;;;;;;22.42;51.76;99886.39;1680482;83;21105;-71
2022/06/14 11:02:24;;;;;;;2.17;0.88;;;;;;;22.31;51.86;99899.16;1661960;86;20967;-70
2022/06/14 11:05:12;;;;;;;4.37;1.30;;;;;;;22.30;51.60;99900.19;1678163;85;20984;-69
2022/06/14 11:08:05;;;;;;;4.83;1.15;;;;;;;22.25;51.13;99908.36;1660555;84;21056;-70
2022/06/14 11:11:15;;;;;;;1.42;1.10;;;;;;;22.23;51.06;99915.81;1688894;83;21846;-69
2022/06/14 11:14:15;;;;;;;1.45;1.00;;;;;;;22.34;51.10;99915.69;1683216;85;21150;-70
2022/06/14 11:17:15;;;;;;;6.53;1.15;;;;;;;22.51;50.75;99909.36;1679006;83;20960;-69
2022/06/14 11:20:34;;;;;;;3.50;0.98;;;;;;;22.50;49.98;99902.33;1688049;84;20984;-70
2022/06/14 11:23:16;;;;;;;2.47;0.98;;;;;;;22.35;50.22;99899.03;1660239;86;21493;-69
2022/06/14 11:25:58;;;;;;;2.20;1.00;;;;;;;22.19;50.78;99907.83;1704735;82;21943;-69
2022/06/14 11:28:58;;;;;;;1.30;1.00;;;;;;;22.20;50.47;99906.00;1728438;83;21008;-70
2022/06/14 11:31:48;;;;;;;2.62;1.00;;;;;;;22.13;50.32;99914.58;1635948;86;21391;-70
2022/06/14 11:34:31;;;;;;;2.55;1.00;;;;;;;;;;1640239;86;21033;-70
2022/06/14 11:37:35;;;;;;;1.10;1.00;;;;;;;22.15;49.92;99907.13;1687980;84;21031;-70
2022/06/14 11:40:10;;;;;;;1.22;1.00;;;;;;;22.27;49.86;99907.63;1681671;83;22568;-70
2022/06/14 11:42:54;;;;;;;2.55;1.07;;;;;;;22.48;49.00;99907.06;1671107;83;21016;-70
2022/06/14 11:45:50;;;;;;;2.30;1.10;;;;;;;22.61;48.81;99907.05;1688358;84;21395;-69
2022/06/14 11:48:31;;;;;;;2.08;1.10;;;;;;;22.69;48.42;99900.09;1688326;85;21064;-69
2022/06/14 11:51:09;;;;;;;2.35;1.10;;;;;;;22.82;48.12;99914.02;1686686;84;21007;-69
2022/06/14 11:54:07;;;;;;;1.77;1.05;;;;;;;22.90;46.93;99913.00;1689079;85;21048;-70
2022/06/14 11:56:47;;;;;;;1.47;1.10;;;;;;;22.85;46.48;99913.09;1663945;83;20948;-69
2022/06/14 11:59:43;;;;;;;1.80;1.20;;;;;;;22.94;46.13;99920.94;1669936;83;20948;-69
2022/06/14 12:02:33;;;;;;;2.30;1.10;;;;;;;23.11;46.48;99926.16;1676142;85;21012;-70
2022/06/14 12:05:33;;;;;;;1.35;1.02;;;;;;;23.39;45.43;99915.86;1666813;84;20972;-70
2022/06/14 12:08:24;;;;;;;3.15;1.10;;;;;;;23.67;45.74;99920.07;1651974;84;22621;-70
2022/06/14 12:11:05;;;;;;;3.45;1.10;;;;;;;24.02;43.93;99914.19;1687047;83;21012;-70
2022/06/14 12:13:47;;;;;;;2.45;0.95;;;;;;;24.24;43.02;99912.23;1670954;85;20987;-70
2022/06/14 12:16:36;;;;;;;1.70;1.10;;;;;;;24.32;42.98;99909.81;1689137;81;20972;-69
2022/06/14 12:19:10;;;;;;;1.32;1.00;;;;;;;24.45;43.07;99903.45;1691304;84;20952;-69
2022/06/14 12:21:58;;;;;;;1.40;1.20;;;;;;;24.70;43.26;99896.08;1659796;86;21925;-69
2022/06/14 12:27:18;;;;;;;1.50;1.10;;;;;;;25.05;41.26;99899.02;1606113;89;20993;-70
2022/06/14 12:29:44;;;;;;;1.25;1.15;;;;;;;24.94;41.57;99890.30;1609985;86;21460;-70
2022/06/14 12:32:34;;;;;;;1.67;1.10;;;;;;;24.97;41.05;99883.08;1652951;86;21065;-72
2022/06/14 12:35:13;;;;;;;2.25;1.10;;;;;;;25.16;41.64;99883.08;1663601;85;21798;-71
2022/06/14 12:37:45;;;;;;;1.87;1.22;;;;;;;25.38;40.84;99886.91;1622412;86;21008;-71
2022/06/14 12:40:33;;;;;;;1.57;1.00;;;;;;;25.53;40.52;99894.08;1635548;87;21024;-70
2022/06/14 12:43:11;;;;;;;1.50;1.20;;;;;;;25.61;39.98;99895.11;1658935;86;21447;-71
2022/06/14 12:45:56;;;;;;;2.65;1.22;;;;;;;25.83;40.25;99894.59;1643761;86;21072;-71
2022/06/14 12:48:59;;;;;;;1.30;1.20;;;;;;;26.27;39.20;99905.39;1605002;88;22231;-72
2022/06/14 12:51:43;;;;;;;1.97;1.20;;;;;;;26.39;38.83;99895.94;1638510;85;21060;-70
2022/06/14 12:54:36;;;;;;;1.65;1.00;;;;;;;26.55;39.72;99894.41;1638035;87;21016;-70
2022/06/14 12:57:30;;;;;;;3.47;1.17;;;;;;;26.87;37.83;99903.74;1629832;85;20988;-73
2022/06/14 13:00:28;;;;;;;1.82;1.17;;;;;;;26.91;37.31;99896.77;1641834;87;21047;-70
2022/06/14 13:03:22;;;;;;;1.95;1.20;;;;;;;26.79;36.80;99898.70;1630478;87;21607;-72
2022/06/14 13:06:11;;;;;;;1.62;1.00;;;;;;;26.51;37.18;99891.33;1639075;87;28943;-72